Thunder radar more information blitzortung!


Radar de pluja more information rain snow radar


Visita la nostra xarxa de llocs de meteo:

Template documentation
and downloads

And another site



No particular awareness of the weather is required.    There are no Weather-warnings

Pagina Historial Weather Underground text

Diari Resum February 10, 2018 Unitats:  Imperial    Mètric   Tant
« Previous Dia
SegĂźent Dia »
Diari Setmana Mensual Anual Personalitzada
  Maxima: Minima: Media:
Temperatura: TemperatureC °F -0.1 °F 5.4 °F
Punt de rosada: DewpointC °F -13.3 °F -7.4 °F
Humitat: Humidity % 24 % 41 %
Wind Speed: WindSpeedKMH mph 0.0 mph 4.5 mph
RĂ fegues de vent: WindSpeedGustKMH mph - -
Vent:- - SSW
Pression baro: PressurehPa in 1013.8 in -
Precipitacions: 0.0 in    
Historical Graphs
 
 
Dades de taula per February 10, 2018
Temps Temperatura Punt de rosada Pression baro Vent Wind Speed RĂ fegues de vent Humitat Rainfall Rate (Hourly)
TemperatureC °F DewpointC °F PressurehPa in Calm     Humidity % HourlyPrecipMM in
00:01 3.3 °F -4.7 °F 1015.8 in NNE 3.7 mph 3.7 mph 56 % 0.0 in
00:06 3.4 °F -4.8 °F 1015.8 in NNW 3.7 mph 3.7 mph 55 % 0.0 in
00:11 3.4 °F -4.6 °F 1015.8 in NNE 7.4 mph 7.4 mph 56 % 0.0 in
00:16 3.3 °F -4.7 °F 1015.8 in WNW 3.7 mph 3.7 mph 56 % 0.0 in
00:21 3.2 °F -4.7 °F 1015.8 in WNW 3.7 mph 3.7 mph 56 % 0.0 in
00:26 3.2 °F -5.0 °F 1015.8 in WSW 5.6 mph 5.6 mph 55 % 0.0 in
00:31 3.2 °F -4.7 °F 1015.8 in WSW 3.7 mph 3.7 mph 56 % 0.0 in
00:36 3.1 °F -4.8 °F 1015.8 in WSW 3.7 mph 3.7 mph 56 % 0.0 in
00:41 3.0 °F -4.9 °F 1015.8 in Calm     56 % 0.0 in
00:46 2.8 °F -5.1 °F 1015.8 in SSE 3.9 mph 3.9 mph 56 % 0.0 in
00:51 2.7 °F -5.0 °F 1015.8 in SSE 3.2 mph 3.2 mph 57 % 0.0 in
00:56 2.7 °F -5.0 °F 1015.8 in Calm     57 % 0.0 in
01:01 3.0 °F -4.7 °F 1015.8 in NE 3.7 mph 3.7 mph 57 % 0.0 in
01:06 2.9 °F -4.8 °F 1015.8 in NNE 5.6 mph 5.6 mph 57 % 0.0 in
01:11 2.8 °F -4.9 °F 1015.8 in NNW 5.8 mph 5.8 mph 57 % 0.0 in
01:16 2.9 °F -4.8 °F 1014.8 in North 7.4 mph 7.4 mph 57 % 0.0 in
01:21 3.1 °F -4.4 °F 1014.8 in SW 7.4 mph 7.4 mph 58 % 0.0 in
01:26 3.2 °F -4.5 °F 1014.8 in North 7.4 mph 7.4 mph 57 % 0.0 in
01:31 3.4 °F -4.3 °F 1015.8 in NE 7.4 mph 7.4 mph 57 % 0.0 in
01:36 3.7 °F -4.1 °F 1015.8 in NE 3.7 mph 3.7 mph 57 % 0.0 in
01:41 3.5 °F -4.2 °F 1015.8 in NNE 5.6 mph 5.6 mph 57 % 0.0 in
01:46 3.2 °F -4.5 °F 1015.8 in ENE 3.7 mph 3.7 mph 57 % 0.0 in
01:51 3.1 °F -4.6 °F 1015.8 in NNE 3.9 mph 3.9 mph 57 % 0.0 in
01:56 3.0 °F -4.7 °F 1015.8 in SSW 3.2 mph 3.2 mph 57 % 0.0 in
02:01 2.9 °F -4.8 °F 1015.8 in WSW 3.9 mph 4.2 mph 57 % 0.0 in
02:06 2.8 °F -4.7 °F 1015.8 in WSW 1.9 mph 2.3 mph 58 % 0.0 in
02:11 2.7 °F -4.8 °F 1015.8 in ENE 3.7 mph 3.7 mph 58 % 0.0 in
02:16 2.7 °F -4.8 °F 1015.8 in NNW 1.9 mph 1.9 mph 58 % 0.0 in
02:21 2.5 °F -4.9 °F 1015.8 in WNW 3.2 mph 3.2 mph 58 % 0.0 in
02:26 2.5 °F -4.9 °F 1015.8 in WSW 5.6 mph 5.6 mph 58 % 0.0 in
02:31 2.2 °F -5.2 °F 1015.8 in WSW 3.7 mph 3.7 mph 58 % 0.0 in
02:36 2.1 °F -5.1 °F 1015.8 in WSW 3.7 mph 3.7 mph 59 % 0.0 in
02:41 2.1 °F -5.1 °F 1015.8 in SW 3.7 mph 3.7 mph 59 % 0.0 in
02:46 2.0 °F -5.2 °F 1014.8 in WSW 3.7 mph 3.7 mph 59 % 0.0 in
02:51 1.9 °F -5.1 °F 1014.8 in WSW 2.6 mph   60 % 0.0 in
03:01 1.8 °F -4.9 °F 1014.8 in Calm     61 % 0.0 in
03:06 1.7 °F -5.0 °F 1014.8 in Calm     61 % 0.0 in
03:11 1.7 °F -5.0 °F 1014.8 in WNW 3.7 mph 3.7 mph 61 % 0.0 in
03:16 1.7 °F -5.0 °F 1015.8 in NNE 2.3 mph 2.3 mph 61 % 0.0 in
03:21 1.7 °F -5.0 °F 1015.8 in WNW 3.7 mph 3.7 mph 61 % 0.0 in
03:26 1.7 °F -5.0 °F 1015.8 in Calm     61 % 0.0 in
03:31 1.7 °F -4.8 °F 1015.8 in NNE 3.7 mph 3.7 mph 62 % 0.0 in
03:36 1.5 °F -5.0 °F 1015.8 in NE 1.9 mph 1.9 mph 62 % 0.0 in
03:41 1.5 °F -5.0 °F 1015.8 in WNW 3.7 mph 3.7 mph 62 % 0.0 in
03:46 1.6 °F -4.9 °F 1015.8 in NNW 1.9 mph   62 % 0.0 in
03:51 1.6 °F -4.9 °F 1015.8 in WNW 3.7 mph 3.7 mph 62 % 0.0 in
03:56 1.7 °F -4.8 °F 1015.8 in NNE 3.7 mph 3.7 mph 62 % 0.0 in
04:01 1.6 °F -5.1 °F 1015.8 in SW 3.7 mph 3.7 mph 61 % 0.0 in
04:06 1.4 °F -5.3 °F 1015.8 in WSW 3.7 mph 3.7 mph 61 % 0.0 in
04:11 1.3 °F -5.2 °F 1015.8 in Calm     62 % 0.0 in
04:16 1.2 °F -5.3 °F 1015.8 in Calm     62 % 0.0 in
04:21 1.1 °F -5.4 °F 1015.8 in WSW 3.7 mph   62 % 0.0 in
04:26 1.1 °F -5.4 °F 1015.8 in SW 2.6 mph 2.6 mph 62 % 0.0 in
04:31 1.1 °F -5.6 °F 1015.8 in WSW 3.9 mph 3.9 mph 61 % 0.0 in
04:36 1.0 °F -5.5 °F 1015.8 in SW 3.9 mph 3.9 mph 62 % 0.0 in
04:41 0.8 °F -5.7 °F 1015.8 in ESE 1.9 mph 1.9 mph 62 % 0.0 in
04:46 0.7 °F -5.6 °F 1015.8 in SW 1.9 mph   63 % 0.0 in
04:51 0.7 °F -5.8 °F 1015.8 in SW 1.9 mph   62 % 0.0 in
04:56 0.7 °F -5.6 °F 1015.8 in Calm     63 % 0.0 in
05:01 0.6 °F -5.7 °F 1015.8 in NE 3.7 mph 3.7 mph 63 % 0.0 in
05:06 0.4 °F -5.8 °F 1015.8 in NE 3.7 mph 3.7 mph 63 % 0.0 in
05:11 0.3 °F -5.9 °F 1015.8 in West 3.7 mph 3.7 mph 63 % 0.0 in
05:16 0.2 °F -6.0 °F 1014.8 in WNW 3.7 mph 3.7 mph 63 % 0.0 in
05:21 0.2 °F -6.0 °F 1014.8 in WNW 1.9 mph   63 % 0.0 in
05:26 0.1 °F -6.1 °F 1014.8 in WSW 3.7 mph 3.7 mph 63 % 0.0 in
05:31 0.0 °F -6.2 °F 1014.8 in Calm     63 % 0.0 in
05:36 -0.1 °F -6.1 °F 1014.8 in Calm     64 % 0.0 in
05:41 0.0 °F -6.0 °F 1014.8 in NW 3.7 mph 3.7 mph 64 % 0.0 in
05:46 0.4 °F -6.1 °F 1015.8 in North 3.7 mph 3.7 mph 62 % 0.0 in
05:51 0.7 °F -5.9 °F 1015.8 in NNE 2.6 mph 2.6 mph 61 % 0.0 in
05:56 1.2 °F -5.7 °F 1015.8 in NNE 7.4 mph 7.4 mph 60 % 0.0 in
06:01 1.5 °F -5.7 °F 1015.8 in NNE 3.7 mph 3.7 mph 59 % 0.0 in
06:06 1.5 °F -5.9 °F 1015.8 in WSW 5.8 mph 5.8 mph 58 % 0.0 in
06:11 0.9 °F -6.4 °F 1015.8 in West 3.7 mph 3.7 mph 58 % 0.0 in
06:16 0.5 °F -6.6 °F 1015.8 in WSW 4.2 mph 4.2 mph 59 % 0.0 in
06:21 0.6 °F -6.5 °F 1015.8 in WSW 5.6 mph 5.6 mph 59 % 0.0 in
06:26 0.6 °F -6.7 °F 1015.8 in West 1.9 mph 1.9 mph 58 % 0.0 in
06:31 0.7 °F -6.6 °F 1015.8 in NNW 3.7 mph 3.7 mph 58 % 0.0 in
06:36 0.9 °F -6.7 °F 1015.8 in NNE 3.9 mph 3.9 mph 57 % 0.0 in
06:41 1.2 °F -6.6 °F 1015.8 in WNW 1.9 mph   56 % 0.0 in
06:46 1.4 °F -6.7 °F 1015.8 in ENE 3.7 mph 3.7 mph 55 % 0.0 in
06:51 1.4 °F -6.7 °F 1015.8 in WNW 3.7 mph   55 % 0.0 in
06:56 1.6 °F -6.7 °F 1015.8 in ENE 3.2 mph 3.2 mph 54 % 0.0 in
07:01 1.5 °F -7.1 °F 1015.8 in NE 5.6 mph 5.6 mph 53 % 0.0 in
07:06 0.8 °F -7.4 °F 1015.8 in East 5.6 mph 5.6 mph 54 % 0.0 in
07:11 0.5 °F -7.5 °F 1015.8 in NNE 3.7 mph 3.7 mph 55 % 0.0 in
07:16 0.5 °F -7.5 °F 1015.8 in WNW 2.6 mph 2.6 mph 55 % 0.0 in
07:21 0.6 °F -7.4 °F 1015.8 in West 5.6 mph 5.6 mph 55 % 0.0 in
07:26 0.6 °F -7.4 °F 1015.8 in WSW 5.6 mph 5.6 mph 55 % 0.0 in
07:31 0.5 °F -7.5 °F 1014.8 in West 7.4 mph 7.4 mph 55 % 0.0 in
07:36 0.6 °F -7.4 °F 1014.8 in ENE 1.9 mph 1.9 mph 55 % 0.0 in
07:41 0.8 °F -7.4 °F 1014.8 in ESE 5.6 mph 5.6 mph 54 % 0.0 in
07:46 0.6 °F -7.7 °F 1015.8 in NNE 9.3 mph 9.3 mph 54 % 0.0 in
07:51 0.6 °F -7.4 °F 1015.8 in ESE 2.3 mph 2.3 mph 55 % 0.0 in
07:56 0.8 °F -7.4 °F 1015.8 in Calm     54 % 0.0 in
08:01 1.0 °F -7.3 °F 1015.8 in WNW 7.4 mph 7.4 mph 54 % 0.0 in
08:06 1.0 °F -7.3 °F 1015.8 in West 3.7 mph 3.7 mph 54 % 0.0 in
08:11 1.5 °F -6.8 °F 1015.8 in NW 5.6 mph 5.6 mph 54 % 0.0 in
08:16 1.6 °F -6.9 °F 1015.8 in WNW 7.4 mph 7.4 mph 53 % 0.0 in
08:21 1.8 °F -7.0 °F 1015.8 in NNW 3.7 mph 3.7 mph 52 % 0.0 in
08:26 1.9 °F -6.9 °F 1015.8 in WSW 1.9 mph   52 % 0.0 in
08:31 2.2 °F -6.9 °F 1015.8 in ENE 3.9 mph 3.9 mph 51 % 0.0 in
08:36 2.2 °F -6.9 °F 1015.8 in East 5.6 mph 5.6 mph 51 % 0.0 in
08:41 2.1 °F -6.7 °F 1015.8 in NNE 4.7 mph 4.7 mph 52 % 0.0 in
08:46 2.2 °F -6.7 °F 1015.8 in NNE 1.9 mph   52 % 0.0 in
08:51 2.7 °F -6.2 °F 1015.8 in NNE 1.9 mph   52 % 0.0 in
08:56 2.9 °F -6.0 °F 1015.8 in WSW 1.9 mph   52 % 0.0 in
09:01 3.6 °F -5.3 °F 1016.8 in ENE 3.2 mph   52 % 0.0 in
09:06 3.7 °F -5.5 °F 1016.8 in East 3.7 mph 3.7 mph 51 % 0.0 in
09:11 3.8 °F -5.4 °F 1016.8 in NNE 6.9 mph 6.9 mph 51 % 0.0 in
09:16 3.8 °F -5.4 °F 1016.8 in NE 2.6 mph 2.6 mph 51 % 0.0 in
09:21 4.0 °F -5.2 °F 1016.8 in ESE 1.9 mph   51 % 0.0 in
09:26 4.5 °F -4.8 °F 1016.8 in Calm     51 % 0.0 in
09:31 4.4 °F -4.9 °F 1016.8 in WSW 3.9 mph 3.9 mph 51 % 0.0 in
09:36 4.2 °F -5.1 °F 1016.8 in WSW 3.9 mph 3.9 mph 51 % 0.0 in
09:41 3.9 °F -5.3 °F 1016.8 in WSW 3.7 mph 3.7 mph 51 % 0.0 in
09:46 4.5 °F -4.8 °F 1015.8 in SW 3.9 mph 3.9 mph 51 % 0.0 in
09:51 4.7 °F -4.6 °F 1015.8 in SW 3.7 mph 3.7 mph 51 % 0.0 in
09:56 4.8 °F -4.8 °F 1015.8 in WSW 4.7 mph 4.7 mph 50 % 0.0 in
10:01 5.0 °F -4.6 °F 1015.8 in WSW 3.7 mph 3.7 mph 50 % 0.0 in
10:06 5.4 °F -4.5 °F 1015.8 in WNW 13.0 mph 13.0 mph 49 % 0.0 in
10:11 6.1 °F -4.4 °F 1015.8 in WSW 9.3 mph 9.3 mph 47 % 0.0 in
10:16 6.5 °F -4.3 °F 1015.8 in NE 9.3 mph 9.3 mph 46 % 0.0 in
10:21 6.4 °F -4.7 °F 1015.8 in East 9.7 mph 9.7 mph 45 % 0.0 in
10:26 6.7 °F -5.0 °F 1015.8 in East 10.0 mph 10.0 mph 43 % 0.0 in
10:31 6.2 °F -5.5 °F 1015.8 in ESE 9.3 mph 9.3 mph 43 % 0.0 in
10:36 6.4 °F -5.3 °F 1015.8 in ESE 6.4 mph 6.4 mph 43 % 0.0 in
10:41 7.0 °F -5.4 °F 1015.8 in NNE 4.2 mph 4.2 mph 41 % 0.0 in
10:46 7.0 °F -4.7 °F 1015.8 in NW 4.2 mph 4.2 mph 43 % 0.0 in
10:51 7.2 °F -4.9 °F 1015.8 in NNW 11.1 mph 11.1 mph 42 % 0.0 in
10:56 7.6 °F -4.8 °F 1015.8 in ENE 7.4 mph 7.4 mph 41 % 0.0 in
11:01 7.9 °F -4.6 °F 1016.8 in West 5.6 mph 5.6 mph 41 % 0.0 in
11:06 8.1 °F -4.4 °F 1016.8 in SW 14.8 mph 14.8 mph 41 % 0.0 in
11:11 8.0 °F -4.8 °F 1016.8 in West 7.4 mph 7.4 mph 40 % 0.0 in
11:16 7.9 °F -5.2 °F 1015.8 in West 9.3 mph 9.3 mph 39 % 0.0 in
11:21 8.1 °F -5.1 °F 1015.8 in West 9.3 mph 9.3 mph 39 % 0.0 in
11:26 8.2 °F -5.3 °F 1015.8 in SSW 7.4 mph 7.4 mph 38 % 0.0 in
11:31 8.4 °F -5.1 °F 1015.8 in WSW 9.3 mph 9.3 mph 38 % 0.0 in
11:36 8.5 °F -5.7 °F 1015.8 in ENE 5.6 mph 5.6 mph 36 % 0.0 in
11:41 8.7 °F -5.6 °F 1015.8 in NNW 5.8 mph 5.8 mph 36 % 0.0 in
11:46 8.6 °F -5.7 °F 1015.8 in WNW 9.3 mph 9.3 mph 36 % 0.0 in
11:51 8.9 °F -5.8 °F 1015.8 in NNE 13.0 mph 13.0 mph 35 % 0.0 in
11:56 8.9 °F -5.8 °F 1015.8 in ENE 7.4 mph 7.4 mph 35 % 0.0 in
12:01 8.9 °F -6.2 °F 1015.8 in SSW 6.1 mph 6.1 mph 34 % 0.0 in
12:06 9.0 °F -6.1 °F 1015.8 in NNE 9.3 mph 9.3 mph 34 % 0.0 in
12:11 9.2 °F -6.3 °F 1015.8 in SW 5.6 mph 5.6 mph 33 % 0.0 in
12:16 9.3 °F -5.8 °F 1015.8 in NW 5.8 mph 5.8 mph 34 % 0.0 in
12:21 9.3 °F -6.2 °F 1015.8 in NW 7.9 mph 7.9 mph 33 % 0.0 in
12:26 9.2 °F -6.7 °F 1015.8 in WSW 7.4 mph 7.4 mph 32 % 0.0 in
12:31 9.5 °F -6.0 °F 1015.8 in WNW 7.4 mph 7.4 mph 33 % 0.0 in
12:36 9.5 °F -6.0 °F 1015.8 in SW 9.3 mph 9.3 mph 33 % 0.0 in
12:41 9.6 °F -6.3 °F 1015.8 in NNW 5.6 mph 5.6 mph 32 % 0.0 in
12:46 9.9 °F -5.7 °F 1015.8 in WNW 9.3 mph 9.3 mph 33 % 0.0 in
12:51 10.0 °F -5.6 °F 1015.8 in ENE 9.3 mph 9.3 mph 33 % 0.0 in
12:56 10.0 °F -5.9 °F 1015.8 in West 4.2 mph 4.2 mph 32 % 0.0 in
13:01 10.2 °F -5.4 °F 1014.8 in West 5.3 mph 5.3 mph 33 % 0.0 in
13:06 10.4 °F -5.6 °F 1014.8 in West 3.7 mph 3.7 mph 32 % 0.0 in
13:11 10.3 °F -5.7 °F 1014.8 in WNW 5.6 mph 5.6 mph 32 % 0.0 in
13:16 10.3 °F -6.1 °F 1014.8 in North 11.1 mph 11.1 mph 31 % 0.0 in
13:21 10.3 °F -6.1 °F 1014.8 in WSW 7.4 mph 7.4 mph 31 % 0.0 in
13:26 10.3 °F -6.1 °F 1014.8 in WNW 11.1 mph 11.1 mph 31 % 0.0 in
13:31 10.5 °F -5.9 °F 1014.8 in WNW 16.7 mph 16.7 mph 31 % 0.0 in
13:36 10.4 °F -6.4 °F 1014.8 in WSW 5.6 mph 5.6 mph 30 % 0.0 in
13:41 10.6 °F -6.3 °F 1014.8 in East 9.3 mph 9.3 mph 30 % 0.0 in
13:46 10.1 °F -7.2 °F 1013.8 in ENE 5.6 mph 6.9 mph 29 % 0.0 in
13:51 10.1 °F -7.2 °F 1013.8 in NNW 5.6 mph 5.6 mph 29 % 0.0 in
13:56 10.6 °F -6.3 °F 1013.8 in WNW 3.7 mph 3.7 mph 30 % 0.0 in
14:01 10.6 °F -6.7 °F 1013.8 in West 3.7 mph 3.7 mph 29 % 0.0 in
14:06 10.4 °F -6.9 °F 1013.8 in NNE 7.9 mph 7.9 mph 29 % 0.0 in
14:11 10.3 °F -7.4 °F 1013.8 in NNE 9.3 mph 9.3 mph 28 % 0.0 in
14:16 10.6 °F -6.7 °F 1013.8 in NNW 3.7 mph 3.7 mph 29 % 0.0 in
14:21 10.7 °F -6.7 °F 1013.8 in NNE 9.3 mph 9.3 mph 29 % 0.0 in
14:26 10.6 °F -7.2 °F 1013.8 in NNE 18.0 mph 18.0 mph 28 % 0.0 in
14:31 10.5 °F -8.2 °F 1013.8 in ENE 14.8 mph 14.8 mph 26 % 0.0 in
14:36 10.5 °F -8.2 °F 1013.8 in NNE 11.1 mph 11.1 mph 26 % 0.0 in
14:41 10.8 °F -7.5 °F 1013.8 in WNW 3.7 mph 3.7 mph 27 % 0.0 in
14:46 10.7 °F -7.6 °F 1013.8 in NE 7.4 mph 7.4 mph 27 % 0.0 in
14:51 10.7 °F -8.1 °F 1013.8 in NE 16.7 mph 16.7 mph 26 % 0.0 in
14:56 10.9 °F -7.9 °F 1013.8 in East 7.4 mph 7.4 mph 26 % 0.0 in
15:01 10.9 °F -7.4 °F 1013.8 in South 9.3 mph 9.3 mph 27 % 0.0 in
15:06 11.2 °F -7.2 °F 1013.8 in NNW 5.6 mph 5.6 mph 27 % 0.0 in
15:11 11.2 °F -7.2 °F 1013.8 in NNW 7.4 mph 7.4 mph 27 % 0.0 in
15:16 11.2 °F -6.7 °F 1013.8 in NW 3.7 mph 3.9 mph 28 % 0.0 in
15:21 11.2 °F -7.2 °F 1013.8 in NNW 2.6 mph 2.6 mph 27 % 0.0 in
15:26 11.1 °F -7.7 °F 1013.8 in SSE 5.3 mph 5.3 mph 26 % 0.0 in
15:31 11.1 °F -7.2 °F 1013.8 in North 5.6 mph 5.6 mph 27 % 0.0 in
15:36 11.2 °F -7.2 °F 1013.8 in WNW 5.6 mph 5.6 mph 27 % 0.0 in
15:41 11.5 °F -6.4 °F 1013.8 in NNE 5.6 mph 5.6 mph 28 % 0.0 in
15:46 11.2 °F -7.6 °F 1013.8 in NNE 1.9 mph 1.9 mph 26 % 0.0 in
15:51 11.0 °F -8.3 °F 1013.8 in ESE 5.6 mph 5.6 mph 25 % 0.0 in
15:56 10.8 °F -8.5 °F 1013.8 in ENE 5.6 mph 5.6 mph 25 % 0.0 in
16:01 10.9 °F -7.9 °F 1013.8 in ENE 7.4 mph 7.4 mph 26 % 0.0 in
16:06 11.3 °F -7.6 °F 1013.8 in NW 5.6 mph 5.6 mph 26 % 0.0 in
16:11 11.2 °F -7.6 °F 1013.8 in North 3.7 mph 3.7 mph 26 % 0.0 in
16:16 11.0 °F -7.8 °F 1013.8 in North 6.4 mph 6.4 mph 26 % 0.0 in
16:21 11.0 °F -8.3 °F 1013.8 in NNW 3.7 mph 3.7 mph 25 % 0.0 in
16:26 10.9 °F -8.4 °F 1013.8 in NNE 10.8 mph 10.8 mph 25 % 0.0 in
16:31 10.8 °F -8.5 °F 1013.8 in WNW 5.3 mph 5.3 mph 25 % 0.0 in
16:36 10.8 °F -8.5 °F 1013.8 in NW 4.2 mph 4.2 mph 25 % 0.0 in
16:41 10.8 °F -8.5 °F 1013.8 in NW 3.7 mph 3.7 mph 25 % 0.0 in
16:46 10.8 °F -8.5 °F 1013.8 in NNW 3.7 mph 3.7 mph 25 % 0.0 in
16:51 10.8 °F -8.0 °F 1013.8 in NNW 3.9 mph 3.9 mph 26 % 0.0 in
16:56 10.8 °F -8.5 °F 1013.8 in ESE 3.7 mph 3.7 mph 25 % 0.0 in
17:01 10.8 °F -8.0 °F 1013.8 in WNW 3.9 mph 3.9 mph 26 % 0.0 in
17:06 11.0 °F -7.8 °F 1013.8 in WNW 3.5 mph   26 % 0.0 in
17:11 10.9 °F -7.9 °F 1013.8 in WNW 3.7 mph 3.7 mph 26 % 0.0 in
17:16 10.8 °F -8.5 °F 1013.8 in WNW 3.7 mph 3.7 mph 25 % 0.0 in
17:21 10.9 °F -8.4 °F 1013.8 in NW 3.7 mph 3.7 mph 25 % 0.0 in
17:26 11.0 °F -8.3 °F 1013.8 in WNW 2.3 mph 2.3 mph 25 % 0.0 in
17:31 10.8 °F -9.0 °F 1013.8 in Calm     24 % 0.0 in
17:36 11.0 °F -8.3 °F 1013.8 in WNW 2.3 mph 2.6 mph 25 % 0.0 in
17:41 11.2 °F -7.6 °F 1013.8 in SW 3.5 mph 3.5 mph 26 % 0.0 in
17:46 11.0 °F -7.8 °F 1014.8 in WNW 9.3 mph 9.3 mph 26 % 0.0 in
17:51 10.8 °F -7.5 °F 1014.8 in WSW 9.5 mph 9.5 mph 27 % 0.0 in
17:56 10.6 °F -7.7 °F 1014.8 in WSW 5.6 mph 5.6 mph 27 % 0.0 in
18:01 10.2 °F -8.5 °F 1014.8 in SSW 3.7 mph 3.9 mph 26 % 0.0 in
18:06 9.9 °F -8.3 °F 1014.8 in WSW 5.6 mph 5.6 mph 27 % 0.0 in
18:11 9.6 °F -8.5 °F 1014.8 in WSW 7.4 mph 7.4 mph 27 % 0.0 in
18:16 9.4 °F -8.7 °F 1014.8 in SW 5.8 mph 5.8 mph 27 % 0.0 in
18:21 9.2 °F -9.3 °F 1014.8 in SW 9.3 mph 9.3 mph 26 % 0.0 in
18:26 9.1 °F -9.4 °F 1014.8 in WSW 7.4 mph 7.4 mph 26 % 0.0 in
18:31 8.9 °F -9.6 °F 1014.8 in WSW 6.9 mph 6.9 mph 26 % 0.0 in
18:36 8.7 °F -10.3 °F 1014.8 in NE 5.6 mph 5.6 mph 25 % 0.0 in
18:41 8.5 °F -10.4 °F 1014.8 in NNE 3.5 mph 3.5 mph 25 % 0.0 in
18:46 8.0 °F -10.9 °F 1014.8 in ENE 3.7 mph 3.7 mph 25 % 0.0 in
18:51 7.9 °F -10.9 °F 1014.8 in NW 3.7 mph 3.7 mph 25 % 0.0 in
18:56 7.9 °F -10.9 °F 1014.8 in North 1.9 mph 1.9 mph 25 % 0.0 in
19:01 7.8 °F -11.1 °F 1015.8 in ENE 3.7 mph 3.7 mph 25 % 0.0 in
19:06 7.6 °F -10.7 °F 1015.8 in North 1.9 mph 1.9 mph 26 % 0.0 in
19:11 7.4 °F -10.4 °F 1015.8 in NW 2.6 mph 2.6 mph 27 % 0.0 in
19:16 7.4 °F -10.4 °F 1015.8 in NNE 6.1 mph 6.1 mph 27 % 0.0 in
19:17 7.4 °F -10.4 °F 1015.8 in ENE 5.6 mph 5.6 mph 27 % 0.0 in
19:22 7.4 °F -9.9 °F 1015.8 in ENE 3.7 mph 3.7 mph 28 % 0.0 in
19:27 7.3 °F -10.1 °F 1015.8 in WNW 1.9 mph 1.9 mph 28 % 0.0 in
19:32 7.1 °F -10.2 °F 1015.8 in WNW 1.9 mph   28 % 0.0 in
19:37 7.0 °F -9.8 °F 1015.8 in NNE 3.7 mph 3.7 mph 29 % 0.0 in
19:42 6.8 °F -10.1 °F 1016.8 in North 1.4 mph   29 % 0.0 in
19:47 6.7 °F -10.1 °F 1016.8 in Calm     29 % 0.0 in
19:52 6.5 °F -10.3 °F 1016.8 in Calm     29 % 0.0 in
19:57 6.4 °F -10.4 °F 1015.8 in Calm     29 % 0.0 in
20:02 6.3 °F -10.1 °F 1015.8 in Calm     30 % 0.0 in
20:07 6.2 °F -10.1 °F 1015.8 in Calm     30 % 0.0 in
20:12 6.1 °F -10.2 °F 1015.8 in WNW 1.9 mph 1.9 mph 30 % 0.0 in
20:17 6.0 °F -10.3 °F 1015.8 in Calm     30 % 0.0 in
20:22 5.9 °F -10.4 °F 1015.8 in Calm     30 % 0.0 in
20:27 5.9 °F -10.4 °F 1015.8 in WNW 1.9 mph 1.9 mph 30 % 0.0 in
20:32 5.5 °F -10.3 °F 1015.8 in WSW 4.2 mph 4.2 mph 31 % 0.0 in
20:37 5.4 °F -10.4 °F 1015.8 in West 3.7 mph 3.7 mph 31 % 0.0 in
20:42 5.6 °F -10.2 °F 1015.8 in West 2.6 mph 2.6 mph 31 % 0.0 in
20:47 5.7 °F -10.6 °F 1015.8 in West 3.7 mph 3.7 mph 30 % 0.0 in
20:52 5.7 °F -10.6 °F 1015.8 in WSW 5.0 mph 5.0 mph 30 % 0.0 in
20:57 5.8 °F -10.5 °F 1015.8 in West 1.9 mph   30 % 0.0 in
21:02 5.5 °F -10.7 °F 1015.8 in Calm     30 % 0.0 in
21:07 5.1 °F -11.1 °F 1015.8 in Calm     30 % 0.0 in
21:12 5.0 °F -11.2 °F 1015.8 in NW 1.9 mph 1.9 mph 30 % 0.0 in
21:17 5.1 °F -11.1 °F 1015.8 in West 3.7 mph 3.7 mph 30 % 0.0 in
21:22 5.0 °F -11.2 °F 1015.8 in West 1.9 mph   30 % 0.0 in
21:27 4.7 °F -11.4 °F 1015.8 in ESE 3.7 mph 3.7 mph 30 % 0.0 in
21:32 4.4 °F -11.7 °F 1015.8 in SW 3.7 mph 3.7 mph 30 % 0.0 in
21:37 3.8 °F -12.2 °F 1015.8 in WSW 1.9 mph   30 % 0.0 in
21:42 3.8 °F -12.2 °F 1015.8 in NNW 2.3 mph   30 % 0.0 in
21:47 3.6 °F -12.4 °F 1015.8 in NE 3.7 mph 3.7 mph 30 % 0.0 in
21:52 3.5 °F -12.5 °F 1015.8 in WNW 1.9 mph 1.9 mph 30 % 0.0 in
21:57 3.2 °F -12.3 °F 1015.8 in SSE 1.9 mph   31 % 0.0 in
22:02 3.2 °F -12.3 °F 1015.8 in NNE 1.9 mph 1.9 mph 31 % 0.0 in
22:07 3.1 °F -12.4 °F 1015.8 in WNW 2.3 mph 2.3 mph 31 % 0.0 in
22:12 3.0 °F -12.5 °F 1015.8 in WNW 1.9 mph 1.9 mph 31 % 0.0 in
22:17 3.1 °F -12.4 °F 1015.8 in WNW 3.7 mph 3.7 mph 31 % 0.0 in
22:22 3.1 °F -12.4 °F 1015.8 in WNW 1.9 mph 2.3 mph 31 % 0.0 in
22:27 3.1 °F -12.4 °F 1015.8 in NE 1.9 mph 1.9 mph 31 % 0.0 in
22:32 3.1 °F -12.4 °F 1015.8 in WSW 3.7 mph 3.7 mph 31 % 0.0 in
22:37 2.7 °F -12.8 °F 1015.8 in WSW 1.9 mph 1.9 mph 31 % 0.0 in
22:42 2.8 °F -12.7 °F 1016.8 in WSW 2.6 mph 2.6 mph 31 % 0.0 in
22:47 2.6 °F -12.9 °F 1016.8 in Calm     31 % 0.0 in
22:52 2.7 °F -12.8 °F 1016.8 in Calm     31 % 0.0 in
22:57 2.6 °F -12.5 °F 1016.8 in WSW 3.7 mph 3.7 mph 32 % 0.0 in
23:02 2.4 °F -13.1 °F 1016.8 in West 3.7 mph 3.7 mph 31 % 0.0 in
23:07 2.6 °F -12.9 °F 1016.8 in WNW 3.7 mph 3.7 mph 31 % 0.0 in
23:12 2.6 °F -12.9 °F 1016.8 in WNW 1.9 mph   31 % 0.0 in
23:17 2.7 °F -12.8 °F 1016.8 in Calm     31 % 0.0 in
23:22 2.7 °F -12.4 °F 1016.8 in WNW 2.3 mph 2.3 mph 32 % 0.0 in
23:27 2.6 °F -12.5 °F 1016.8 in NW 2.6 mph 2.6 mph 32 % 0.0 in
23:32 2.6 °F -12.5 °F 1016.8 in Calm     32 % 0.0 in
23:37 2.7 °F -12.8 °F 1016.8 in ENE 3.7 mph 3.7 mph 31 % 0.0 in
23:42 2.5 °F -12.6 °F 1016.8 in SW 3.5 mph 3.5 mph 32 % 0.0 in
23:47 1.9 °F -13.1 °F 1016.8 in WSW 3.9 mph 3.9 mph 32 % 0.0 in
23:52 1.6 °F -13.3 °F 1016.8 in WSW 4.2 mph 4.2 mph 32 % 0.0 in
23:57 1.6 °F -13.3 °F 1016.8 in WNW 3.7 mph 3.7 mph 32 % 0.0 in
Meteo Sesrovires
Elogis d' Weather Underground - 1.75 mb

Guio original per  Jim McMurry - jmcmurry@mwt.net Adaptat per a la plantilla per  Wim van der Kuil - Leuven-Template.eu

Trobareu la nostra informacio del temps tambe a:

Weather Underground

AWEKAS